Time,TemperatureF,DewpointF,PressureIn,WindDirection,WindDirectionDegrees,WindSpeedMPH,WindSpeedGustMPH,Humidity,HourlyPrecipIn,Conditions,Clouds,dailyrainin,SoftwareType,DateUTC
2013-02-08 00:03:00,18.0,8.0,30.40,ENE,66,10.0,16.0,66,0.00,,,0.01,weatherlink.com 1.10,2013-02-08 05:03:00,
2013-02-08 00:17:00,18.1,8.0,30.39,ENE,59,10.0,13.0,65,0.00,,,0.00,weatherlink.com 1.10,2013-02-08 05:17:00,
2013-02-08 00:32:00,18.4,6.0,30.38,NE,42,5.0,12.0,59,0.00,,,0.00,weatherlink.com 1.10,2013-02-08 05:32:00,
2013-02-08 00:47:00,18.8,6.0,30.38,NE,54,8.0,13.0,57,0.00,,,0.00,weatherlink.com 1.10,2013-02-08 05:47:00,
2013-02-08 01:02:00,18.9,4.0,30.37,NE,51,5.0,14.0,53,0.00,,,0.00,weatherlink.com 1.10,2013-02-08 06:02:00,
2013-02-08 01:18:00,19.0,4.0,30.37,NE,51,6.0,16.0,52,0.00,,,0.00,weatherlink.com 1.10,2013-02-08 06:18:00,
2013-02-08 01:33:00,19.0,3.0,30.37,NNE,12,4.0,14.0,50,0.00,,,0.00,weatherlink.com 1.10,2013-02-08 06:33:00,
2013-02-08 01:48:00,19.0,3.0,30.37,NE,51,7.0,23.0,50,0.00,,,0.00,weatherlink.com 1.10,2013-02-08 06:48:00,
2013-02-08 02:03:00,18.8,3.0,30.37,ENE,67,9.0,16.0,51,0.00,,,0.00,weatherlink.com 1.10,2013-02-08 07:03:00,
2013-02-08 02:18:00,18.8,3.0,30.36,NNW,344,7.0,23.0,50,0.00,,,0.00,weatherlink.com 1.10,2013-02-08 07:18:00,
2013-02-08 02:33:00,18.6,3.0,30.35,NNE,18,5.0,24.0,51,0.00,,,0.00,weatherlink.com 1.10,2013-02-08 07:33:00,
2013-02-08 02:48:00,18.2,5.0,30.34,NE,55,14.0,21.0,57,0.00,,,0.00,weatherlink.com 1.10,2013-02-08 07:48:00,
2013-02-08 03:03:00,17.7,7.0,30.34,NNE,22,3.0,15.0,62,0.00,,,0.00,weatherlink.com 1.10,2013-02-08 08:03:00,
2013-02-08 03:18:00,17.2,8.0,30.33,NNE,28,2.0,19.0,68,0.00,,,0.00,weatherlink.com 1.10,2013-02-08 08:18:00,
2013-02-08 03:33:00,17.0,10.0,30.33,NE,47,5.0,18.0,73,0.00,,,0.00,weatherlink.com 1.10,2013-02-08 08:33:00,
2013-02-08 03:48:00,16.9,11.0,30.32,North,5,5.0,15.0,76,0.00,,,0.00,weatherlink.com 1.10,2013-02-08 08:48:00,
2013-02-08 04:03:00,16.9,11.0,30.31,NE,45,2.0,19.0,79,0.00,,,0.00,weatherlink.com 1.10,2013-02-08 09:03:00,
2013-02-08 04:18:00,17.0,12.0,30.31,NNW,331,5.0,13.0,79,0.00,,,0.00,weatherlink.com 1.10,2013-02-08 09:18:00,
2013-02-08 04:33:00,16.9,12.0,30.30,NE,39,2.0,21.0,80,0.00,,,0.00,weatherlink.com 1.10,2013-02-08 09:33:00,
2013-02-08 04:48:00,17.0,12.0,30.30,NE,51,4.0,19.0,80,0.00,,,0.00,weatherlink.com 1.10,2013-02-08 09:48:00,
2013-02-08 05:03:00,17.2,12.0,30.29,NE,51,11.0,21.0,80,0.00,,,0.00,weatherlink.com 1.10,2013-02-08 10:03:00,
2013-02-08 05:18:00,17.3,12.0,30.28,ENE,73,11.0,19.0,80,0.00,,,0.00,weatherlink.com 1.10,2013-02-08 10:18:00,
2013-02-08 05:33:00,17.6,12.0,30.29,NE,55,7.0,24.0,80,0.00,,,0.00,weatherlink.com 1.10,2013-02-08 10:33:00,
2013-02-08 05:48:00,17.6,13.0,30.28,ENE,78,7.0,15.0,81,0.00,,,0.00,weatherlink.com 1.10,2013-02-08 10:48:00,
2013-02-08 06:03:00,17.5,14.0,30.28,NNW,333,5.0,14.0,84,0.00,,,0.00,weatherlink.com 1.10,2013-02-08 11:03:00,
2013-02-08 06:18:00,17.7,13.0,30.27,NE,41,7.0,18.0,83,0.00,,,0.00,weatherlink.com 1.10,2013-02-08 11:18:00,
2013-02-08 06:33:00,17.8,14.0,30.26,ENE,63,9.0,15.0,84,0.00,,,0.00,weatherlink.com 1.10,2013-02-08 11:33:00,
2013-02-08 06:48:00,18.4,14.0,30.26,NE,44,8.0,21.0,81,0.00,,,0.00,weatherlink.com 1.10,2013-02-08 11:48:00,
2013-02-08 07:04:00,18.5,14.0,30.25,NE,39,9.0,19.0,82,0.00,,,0.00,weatherlink.com 1.10,2013-02-08 12:04:00,
2013-02-08 07:18:00,18.9,14.0,30.25,NE,45,10.0,22.0,81,0.00,,,0.00,weatherlink.com 1.10,2013-02-08 12:18:00,
2013-02-08 07:33:00,19.2,15.0,30.25,ENE,76,10.0,18.0,82,0.00,,,0.00,weatherlink.com 1.10,2013-02-08 12:33:00,
2013-02-08 07:48:00,19.5,15.0,30.25,NE,51,7.0,18.0,83,0.00,,,0.00,weatherlink.com 1.10,2013-02-08 12:48:00,
2013-02-08 08:03:00,19.6,15.0,30.25,ENE,65,12.0,20.0,82,0.00,,,0.00,weatherlink.com 1.10,2013-02-08 13:03:00,
2013-02-08 08:19:00,19.8,15.0,30.24,NE,46,13.0,22.0,81,0.00,,,0.00,weatherlink.com 1.10,2013-02-08 13:19:00,
2013-02-08 08:33:00,20.2,15.0,30.23,ENE,78,14.0,20.0,80,0.00,,,0.00,weatherlink.com 1.10,2013-02-08 13:33:00,
2013-02-08 08:48:00,20.3,15.0,30.22,ENE,66,9.0,19.0,80,0.00,,,0.00,weatherlink.com 1.10,2013-02-08 13:48:00,
2013-02-08 09:03:00,20.6,15.0,30.21,NE,53,14.0,20.0,80,0.00,,,0.00,weatherlink.com 1.10,2013-02-08 14:03:00,
2013-02-08 09:18:00,21.1,16.0,30.21,NNE,33,16.0,24.0,79,0.00,,,0.00,weatherlink.com 1.10,2013-02-08 14:18:00,
2013-02-08 09:34:00,21.6,16.0,30.21,ENE,57,10.0,23.0,78,0.00,,,0.00,weatherlink.com 1.10,2013-02-08 14:34:00,
2013-02-08 09:49:00,21.9,16.0,30.20,East,79,17.0,24.0,77,0.00,,,0.00,weatherlink.com 1.10,2013-02-08 14:49:00,
2013-02-08 10:04:00,22.0,16.0,30.19,ENE,69,10.0,24.0,78,0.00,,,0.00,weatherlink.com 1.10,2013-02-08 15:04:00,
2013-02-08 10:19:00,22.3,16.0,30.19,NE,34,15.0,22.0,77,0.00,,,0.00,weatherlink.com 1.10,2013-02-08 15:19:00,
2013-02-08 10:34:00,22.3,16.0,30.18,ENE,57,17.0,29.0,78,0.00,,,0.00,weatherlink.com 1.10,2013-02-08 15:34:00,
2013-02-08 10:49:00,22.4,17.0,30.17,NE,42,15.0,28.0,78,0.00,,,0.00,weatherlink.com 1.10,2013-02-08 15:49:00,
2013-02-08 11:04:00,22.4,17.0,30.16,ENE,67,18.0,27.0,79,0.00,,,0.00,weatherlink.com 1.10,2013-02-08 16:04:00,
2013-02-08 11:19:00,22.1,17.0,30.16,NE,42,5.0,27.0,82,0.00,,,0.00,weatherlink.com 1.10,2013-02-08 16:19:00,
2013-02-08 11:34:00,22.1,18.0,30.16,NE,44,8.0,27.0,83,0.00,,,0.00,weatherlink.com 1.10,2013-02-08 16:34:00,
2013-02-08 11:49:00,22.3,18.0,30.14,ENE,66,14.0,25.0,83,0.00,,,0.00,weatherlink.com 1.10,2013-02-08 16:49:00,
2013-02-08 12:04:00,22.4,18.0,30.12,NNE,27,20.0,35.0,84,0.00,,,0.00,weatherlink.com 1.10,2013-02-08 17:04:00,
2013-02-08 12:19:00,22.5,19.0,30.11,NE,50,13.0,35.0,85,0.00,,,0.00,weatherlink.com 1.10,2013-02-08 17:19:00,
2013-02-08 12:34:00,22.7,19.0,30.11,ENE,59,21.0,42.0,84,0.00,,,0.00,weatherlink.com 1.10,2013-02-08 17:34:00,
2013-02-08 12:49:00,22.9,19.0,30.10,NE,45,26.0,38.0,84,0.00,,,0.00,weatherlink.com 1.10,2013-02-08 17:49:00,
2013-02-08 13:04:00,23.1,19.0,30.09,NE,56,15.0,40.0,83,0.00,,,0.00,weatherlink.com 1.10,2013-02-08 18:04:00,
2013-02-08 13:19:00,23.1,19.0,30.08,ENE,65,40.0,40.0,84,0.00,,,0.00,weatherlink.com 1.10,2013-02-08 18:19:00,
2013-02-08 13:34:00,23.3,19.0,30.07,NNW,327,6.0,31.0,83,0.00,,,0.00,weatherlink.com 1.10,2013-02-08 18:34:00,
2013-02-08 13:49:00,23.4,19.0,30.06,ENE,70,25.0,32.0,82,0.00,,,0.00,weatherlink.com 1.10,2013-02-08 18:49:00,
2013-02-08 14:04:00,23.5,19.0,30.05,NE,46,4.0,30.0,81,0.00,,,0.00,weatherlink.com 1.10,2013-02-08 19:04:00,
2013-02-08 14:19:00,23.5,19.0,30.03,East,90,9.0,23.0,82,0.00,,,0.00,weatherlink.com 1.10,2013-02-08 19:19:00,
2013-02-08 14:34:00,23.9,19.0,30.03,NE,46,10.0,31.0,81,0.00,,,0.00,weatherlink.com 1.10,2013-02-08 19:34:00,
2013-02-08 14:49:00,24.0,19.0,30.02,ENE,74,4.0,22.0,80,0.00,,,0.00,weatherlink.com 1.10,2013-02-08 19:49:00,
2013-02-08 15:04:00,24.2,19.0,30.02,ENE,65,13.0,26.0,79,0.00,,,0.00,weatherlink.com 1.10,2013-02-08 20:04:00,
2013-02-08 15:19:00,24.3,19.0,30.01,ENE,63,14.0,19.0,79,0.00,,,0.00,weatherlink.com 1.10,2013-02-08 20:19:00,
2013-02-08 15:34:00,24.2,19.0,30.01,ENE,58,12.0,23.0,80,0.00,,,0.00,weatherlink.com 1.10,2013-02-08 20:34:00,
2013-02-08 15:50:00,24.2,19.0,30.00,ENE,57,7.0,19.0,79,0.00,,,0.00,weatherlink.com 1.10,2013-02-08 20:50:00,
2013-02-08 16:04:00,24.2,19.0,30.00,NE,49,9.0,18.0,80,0.00,,,0.00,weatherlink.com 1.10,2013-02-08 21:04:00,
2013-02-08 16:20:00,24.1,19.0,29.99,ENE,70,5.0,17.0,81,0.00,,,0.00,weatherlink.com 1.10,2013-02-08 21:20:00,
2013-02-08 16:34:00,24.3,19.0,29.98,NNE,30,7.0,14.0,80,0.00,,,0.00,weatherlink.com 1.10,2013-02-08 21:34:00,
2013-02-08 16:49:00,24.3,19.0,29.98,ENE,65,14.0,21.0,80,0.00,,,0.00,weatherlink.com 1.10,2013-02-08 21:49:00,
2013-02-08 17:04:00,24.2,19.0,29.98,East,83,8.0,18.0,80,0.00,,,0.00,weatherlink.com 1.10,2013-02-08 22:04:00,
2013-02-08 17:19:00,24.5,19.0,29.97,ENE,64,13.0,16.0,79,0.00,,,0.00,weatherlink.com 1.10,2013-02-08 22:19:00,
2013-02-08 17:35:00,24.3,19.0,29.98,NE,37,7.0,17.0,81,0.00,,,0.00,weatherlink.com 1.10,2013-02-08 22:35:00,
2013-02-08 17:49:00,24.3,19.0,29.97,ENE,68,7.0,15.0,80,0.00,,,0.00,weatherlink.com 1.10,2013-02-08 22:49:00,
2013-02-08 18:04:00,23.7,20.0,29.98,NE,46,6.0,22.0,84,0.00,,,0.00,weatherlink.com 1.10,2013-02-08 23:04:00,
2013-02-08 18:19:00,23.4,19.0,29.97,NNE,32,8.0,15.0,84,0.00,,,0.00,weatherlink.com 1.10,2013-02-08 23:19:00,
2013-02-08 18:34:00,23.1,20.0,29.98,ENE,63,8.0,14.0,86,0.00,,,0.00,weatherlink.com 1.10,2013-02-08 23:34:00,
2013-02-08 18:49:00,22.8,20.0,29.98,ENE,59,3.0,13.0,87,0.00,,,0.00,weatherlink.com 1.10,2013-02-08 23:49:00,
2013-02-08 19:05:00,22.5,20.0,29.98,NE,45,3.0,7.0,88,0.00,,,0.00,weatherlink.com 1.10,2013-02-09 00:05:00,
2013-02-08 19:19:00,22.5,20.0,29.97,ENE,60,9.0,9.0,88,0.00,,,0.00,weatherlink.com 1.10,2013-02-09 00:19:00,
2013-02-08 19:34:00,22.5,20.0,29.98,NE,53,1.0,7.0,88,0.00,,,0.00,weatherlink.com 1.10,2013-02-09 00:34:00,
2013-02-08 19:49:00,22.5,19.0,29.97,NE,55,0.0,7.0,87,0.00,,,0.00,weatherlink.com 1.10,2013-02-09 00:49:00,
2013-02-08 20:04:00,22.5,20.0,29.96,ENE,67,1.0,4.0,88,0.00,,,0.00,weatherlink.com 1.10,2013-02-09 01:04:00,
2013-02-08 20:20:00,22.5,19.0,29.95,South,184,2.0,4.0,87,0.00,,,0.00,weatherlink.com 1.10,2013-02-09 01:20:00,
2013-02-08 20:35:00,22.1,19.0,29.95,SSW,213,1.0,12.0,86,0.00,,,0.00,weatherlink.com 1.10,2013-02-09 01:35:00,
2013-02-08 20:50:00,21.7,18.0,29.94,South,171,3.0,8.0,86,0.00,,,0.00,weatherlink.com 1.10,2013-02-09 01:50:00,
2013-02-08 21:05:00,21.5,18.0,29.94,South,187,0.0,4.0,86,0.00,,,0.00,weatherlink.com 1.10,2013-02-09 02:05:00,
2013-02-08 21:20:00,21.4,17.0,29.93,SSW,203,0.0,7.0,84,0.00,,,0.00,weatherlink.com 1.10,2013-02-09 02:20:00,
2013-02-08 21:35:00,21.4,17.0,29.93,South,172,8.0,9.0,83,0.00,,,0.00,weatherlink.com 1.10,2013-02-09 02:35:00,
2013-02-08 21:50:00,21.5,17.0,29.94,SSW,198,5.0,8.0,83,0.00,,,0.00,weatherlink.com 1.10,2013-02-09 02:50:00,
2013-02-08 22:05:00,21.4,17.0,29.93,SSE,163,1.0,7.0,83,0.00,,,0.00,weatherlink.com 1.10,2013-02-09 03:05:00,
2013-02-08 22:20:00,21.2,17.0,29.93,SSW,213,0.0,1.0,85,0.00,,,0.00,weatherlink.com 1.10,2013-02-09 03:20:00,
2013-02-08 22:35:00,20.9,17.0,29.92,SSE,147,2.0,3.0,85,0.00,,,0.00,weatherlink.com 1.10,2013-02-09 03:35:00,
2013-02-08 22:50:00,20.5,17.0,29.92,SSW,205,5.0,7.0,85,0.00,,,0.00,weatherlink.com 1.10,2013-02-09 03:50:00,
2013-02-08 23:05:00,20.2,16.0,29.92,South,186,1.0,5.0,84,0.00,,,0.00,weatherlink.com 1.10,2013-02-09 04:05:00,
2013-02-08 23:20:00,19.9,16.0,29.91,SSW,196,3.0,6.0,84,0.00,,,0.00,weatherlink.com 1.10,2013-02-09 04:20:00,
2013-02-08 23:35:00,19.9,16.0,29.91,SSE,167,1.0,8.0,84,0.00,,,0.00,weatherlink.com 1.10,2013-02-09 04:35:00,
2013-02-08 23:50:00,19.9,16.0,29.90,SSE,166,0.0,8.0,86,0.00,,,0.00,weatherlink.com 1.10,2013-02-09 04:50:00,